• Join FlightAware (Why Join?)
  • Login
  • US Flag 
07:30PM EST


 

Airport Tracker/Info


-or-


 

Live Flight TrackerFlight Track Log ✈ GLA154 ✈ 18-Apr-2013 ✈ KIGM - KLAX

Flight Track Log - Related Links

Times and Time Zones

All times are in EDT time to prevent confusion due to time zone crossing. See the GLA154 flight status page for this flight to view local times or setup timezone preferences in your user account.

Time Position Orientation Groundspeed Altitude Reporting Facility
EDT Latitude Longitude Course Direction KTS MPH feet Rate Location/Type
10:32AM 35.1206 -114.0814 222° Southwest 216 249 9,200  Level Los Angeles Center
10:33AM 35.0700 -114.1306 219° Southwest 226 260 10,800 1,380 Climbing Los Angeles Center
10:34AM 35.0178 -114.1800 218° Southwest 235 270 12,100 1,260 Climbing Los Angeles Center
10:35AM 34.9658 -114.2339 220° Southwest 243 280 13,500 1,800 Climbing Los Angeles Center
10:36AM 34.9519 -114.3050 257° West 208 239 15,900 1,740 Climbing Los Angeles Center
10:37AM 34.9433 -114.3578 259° West 198 228 17,100 1,320 Climbing Los Angeles Center
10:38AM 34.9311 -114.4375 259° West 200 230 18,700 1,320 Climbing Los Angeles Center
10:39AM 34.9142 -114.5211 256° West 207 238 19,900 600 Climbing Los Angeles Center
10:40AM 34.9092 -114.6011 266° West 227 261 20,000  Climbing Los Angeles Center
10:41AM 34.9111 -114.6853 272° West 243 280 20,000  Level Los Angeles Center
10:42AM 34.9125 -114.7714 271° West 252 290 20,000  Level Los Angeles Center
10:43AM 34.9131 -114.8575 270° West 255 293 20,000  Level Los Angeles Center
10:44AM 34.9153 -114.9444 272° West 256 295 20,000  Level Los Angeles Center
10:45AM 34.9161 -115.0319 271° West 258 297 20,000  Level Los Angeles Center
10:46AM 34.9203 -115.1192 273° West 258 297 20,000  Level Los Angeles Center
10:47AM 34.9225 -115.2183 272° West 245 282 20,000  Level Los Angeles Center
10:48AM 34.9242 -115.2992 271° West 241 277 20,000  Level Los Angeles Center
10:49AM 34.9189 -115.3792 265° West 237 273 20,000  Level Los Angeles Center
10:51AM 34.8989 -115.4567 253° West 242 278 20,000  Level Los Angeles Center
10:52AM 34.8697 -115.5322 245° Southwest 245 282 20,100  Climbing Los Angeles Center
10:53AM 34.8458 -115.6147 251° West 248 285 20,000 -60 Descending Los Angeles Center
10:54AM 34.8322 -115.6919 258° West 236 272 20,000  Level Los Angeles Center
10:55AM 34.8236 -115.7711 262° West 236 272 20,000  Level Los Angeles Center
10:56AM 34.8208 -115.8467 267° West 226 260 20,100  Climbing Los Angeles Center
10:57AM 34.8156 -115.9261 265° West 232 267 20,000 -60 Descending Los Angeles Center
10:58AM 34.8128 -116.0217 268° West 236 272 20,000  Level Los Angeles Center
10:59AM 34.8108 -116.0967 268° West 229 264 20,000  Level Los Angeles Center
11:00AM 34.8075 -116.1733 267° West 227 261 20,000  Level Los Angeles Center
11:01AM 34.8014 -116.2506 265° West 227 261 20,000  Level Los Angeles Center
11:02AM 34.7983 -116.3275 267° West 228 262 20,000  Level Los Angeles Center
11:03AM 34.7936 -116.4044 266° West 229 264 20,000  Level Los Angeles Center
11:04AM 34.7892 -116.4825 266° West 232 267 20,000  Level Los Angeles Center
11:05AM 34.7842 -116.5775 266° West 233 268 20,000  Level Los Angeles Center
11:06AM 34.7792 -116.6547 266° West 231 266 20,000  Level Los Angeles Center
11:07AM 34.7722 -116.7317 264° West 230 265 20,000  Level Los Angeles Center
11:08AM 34.7517 -116.8081 252° West 237 273 20,000  Level Los Angeles Center
11:09AM 34.7303 -116.8842 251° West 238 274 20,000  Level Los Angeles Center
11:10AM 34.7150 -116.9614 256° West 236 272 20,000 -1,080 Level Los Angeles Center
11:11AM 34.7014 -117.0575 260° West 240 276 17,800 -1,680 Descending Los Angeles Center
11:12AM 34.6919 -117.1386 262° West 243 280 16,600 -1,260 Descending Los Angeles Center
11:13AM 34.6883 -117.2147 267° West 230 265 15,200 -1,260 Descending Los Angeles Center
11:14AM 34.6886 -117.2908 270° West 225 259 14,000 -1,260 Descending Los Angeles Center
11:15AM 34.6894 -117.3639 271° West 217 250 12,700 -960 Descending Los Angeles Center
11:16AM 34.6856 -117.4389 266° West 219 252 12,100 -300 Descending Los Angeles Center
11:17AM 34.6781 -117.5175 263° West 228 262 12,100  Level Los Angeles Center
11:18AM 34.6658 -117.6122 261° West 236 272 12,100 -300 Level Los Angeles Center
11:19AM 34.6589 -117.6933 264° West 241 277 11,500 -780 Descending Los Angeles Center
11:20AM 34.6542 -117.7711 266° West 236 272 10,500 -1,020 Descending Los Angeles Center
11:21AM 34.6500 -117.8464 266° West 228 262 9,500 -1,020 Descending Los Angeles Center
11:23AM 34.6428 -117.9228 263° West 227 261 8,400 -720 Descending Los Angeles Center
11:24AM 34.6336 -118.0014 262° West 230 265 8,100 -180 Descending Los Angeles Center
11:25AM 34.6136 -118.0975 256° West 241 277 8,100  Level Los Angeles Center
11:26AM 34.5725 -118.1578 230° Southwest 250 288 8,100  Level Los Angeles Center
11:27AM 34.5269 -118.2250 231° Southwest 254 292 8,100  Level Los Angeles Center
11:28AM 34.4775 -118.3058 233° Southwest 250 288 8,100  Level Los Angeles Center
11:29AM 34.4278 -118.3608 222° Southwest 244 281 8,100 -300 Level Los Angeles Center
11:30AM 34.3614 -118.3672 185° South 236 272 7,500 -600 Descending Los Angeles Center
11:31AM 34.2981 -118.3369 158° South 241 277 6,900 -480 Descending Los Angeles Center
11:32AM 34.2425 -118.3069 156° South 229 264 6,600 -420 Descending Los Angeles Center
11:33AM 34.1914 -118.2706 150° Southeast 217 250 6,100 -720 Descending Los Angeles Center
11:34AM 34.1094 -118.2489 168° South 252 290 5,200 -1,200 Descending Los Angeles Center
11:35AM 34.0375 -118.2597 187° South 257 296 3,700 -1,260 Descending Los Angeles Center
11:36AM 33.9783 -118.2903 203° Southwest 250 288 2,600 -1,320 Descending Los Angeles Center
11:37AM 33.9581 -118.3497 248° West 211 243 1,000 -1,080 Descending Los Angeles Center
11:38AM 33.9539 -118.3919 263° West 155 178 400 -600 Descending Los Angeles Center
11:40AM 33.9333 -118.4000 228° Southwest  Level FlightAware Approximate
11:47AM 33.9425 -118.4081 228° Southwest  Level Estimated